createdAt,value
2019-05-19T00:00:02.320Z,100157.62
2019-05-19T00:02:31.448Z,100153.48
2019-05-19T00:05:00.728Z,100153.70
2019-05-19T00:07:29.832Z,100154.06
2019-05-19T00:09:58.862Z,100159.44
2019-05-19T00:12:27.972Z,100157.44
2019-05-19T00:14:57.000Z,100159.06
2019-05-19T00:17:26.125Z,100162.46
2019-05-19T00:19:55.141Z,100158.98
2019-05-19T00:22:24.162Z,100165.09
2019-05-19T00:24:53.196Z,100164.94
2019-05-19T00:27:23.277Z,100165.93
2019-05-19T00:29:52.300Z,100166.92
2019-05-19T00:32:21.348Z,100171.06
2019-05-19T00:34:50.380Z,100166.64
2019-05-19T00:37:19.405Z,100172.73
2019-05-19T00:39:48.812Z,100173.41
2019-05-19T00:42:17.831Z,100178.92
2019-05-19T00:44:46.946Z,100181.77
2019-05-19T00:47:15.966Z,100183.73
2019-05-19T00:49:45.000Z,100179.56
2019-05-19T00:52:14.108Z,100178.77
2019-05-19T00:54:43.146Z,100173.52
2019-05-19T00:57:12.165Z,100176.66
2019-05-19T00:59:41.588Z,100177.78
2019-05-19T01:02:10.592Z,100176.52
2019-05-19T01:04:39.698Z,100176.44
2019-05-19T01:07:09.082Z,100171.22
2019-05-19T01:09:38.089Z,100169.52
2019-05-19T01:12:07.124Z,100168.65
2019-05-19T01:14:36.215Z,100165.34
2019-05-19T01:17:05.284Z,100159.91
2019-05-19T01:19:34.278Z,100162.48
2019-05-19T01:22:03.313Z,100173.54
2019-05-19T01:24:32.345Z,100179.48
2019-05-19T01:27:01.380Z,100170.25
2019-05-19T01:29:30.409Z,100169.14
2019-05-19T01:31:59.490Z,100176.34
2019-05-19T01:34:28.583Z,100177.80
2019-05-19T01:36:57.900Z,100170.70
2019-05-19T01:39:26.949Z,100173.55
2019-05-19T01:41:56.055Z,100167.36
2019-05-19T01:44:25.079Z,100171.77
2019-05-19T01:46:54.130Z,100175.80
2019-05-19T01:49:23.430Z,100175.08
2019-05-19T01:51:52.472Z,100168.15
2019-05-19T01:54:21.500Z,100166.19
2019-05-19T01:56:50.606Z,100161.95
2019-05-19T01:59:19.636Z,100168.47
2019-05-19T02:01:48.707Z,100163.80
2019-05-19T02:04:17.786Z,100164.67
2019-05-19T02:06:46.882Z,100162.91
2019-05-19T02:09:16.935Z,100165.27
2019-05-19T02:11:45.962Z,100171.78
2019-05-19T02:14:14.979Z,100177.84
2019-05-19T02:16:44.020Z,100176.28
2019-05-19T02:19:13.062Z,100174.17
2019-05-19T02:21:42.083Z,100181.02
2019-05-19T02:24:11.329Z,100179.91
2019-05-19T02:26:40.369Z,100177.84
2019-05-19T02:29:09.408Z,100180.01
2019-05-19T02:31:38.444Z,100178.38
2019-05-19T02:34:07.476Z,100180.34
2019-05-19T02:36:36.531Z,100170.88
2019-05-19T02:39:07.074Z,100170.23
2019-05-19T02:41:36.323Z,100168.73
2019-05-19T02:44:05.432Z,100165.32
2019-05-19T02:46:34.653Z,100158.14
2019-05-19T02:49:03.829Z,100160.85
2019-05-19T02:51:34.438Z,100162.46
2019-05-19T02:54:04.554Z,100165.77
2019-05-19T02:56:33.601Z,100165.22
2019-05-19T02:59:02.696Z,100167.17
2019-05-19T03:01:31.740Z,100161.90
2019-05-19T03:04:00.851Z,100162.11
2019-05-19T03:06:29.872Z,100168.41
2019-05-19T03:08:58.926Z,100157.52
2019-05-19T03:11:28.109Z,100151.02
2019-05-19T03:13:57.218Z,100159.16
2019-05-19T03:16:26.283Z,100150.63
2019-05-19T03:18:55.401Z,100150.41
2019-05-19T03:21:24.426Z,100155.86
2019-05-19T03:23:53.458Z,100147.35
2019-05-19T03:26:22.486Z,100153.05
2019-05-19T03:28:51.547Z,100151.02
2019-05-19T03:31:27.888Z,100153.09
2019-05-19T03:34:01.577Z,100150.55
2019-05-19T03:36:30.661Z,100139.34
2019-05-19T03:38:59.759Z,100141.81
2019-05-19T03:41:28.794Z,100141.60
2019-05-19T03:43:57.824Z,100138.09
2019-05-19T03:46:26.855Z,100139.54
2019-05-19T03:48:55.882Z,100146.78
2019-05-19T03:51:30.795Z,100140.04
2019-05-19T03:53:55.728Z,100149.20
2019-05-19T03:56:24.758Z,100140.55
2019-05-19T03:58:53.841Z,100142.00
2019-05-19T04:01:22.926Z,100140.05
2019-05-19T04:03:51.963Z,100138.05
2019-05-19T04:06:21.000Z,100153.34
2019-05-19T04:08:50.397Z,100142.37
2019-05-19T04:11:19.437Z,100143.85
2019-05-19T04:13:48.551Z,100145.37
2019-05-19T04:16:17.609Z,100150.55
2019-05-19T04:18:46.630Z,100149.82
2019-05-19T04:21:15.661Z,100155.17
2019-05-19T04:23:44.709Z,100155.75
2019-05-19T04:26:13.721Z,100157.59
2019-05-19T04:28:42.832Z,100152.98
2019-05-19T04:31:11.841Z,100150.75
2019-05-19T04:33:40.897Z,100142.13
2019-05-19T04:36:10.221Z,100150.54
2019-05-19T04:38:39.290Z,100146.04
2019-05-19T04:41:08.349Z,100146.59
2019-05-19T04:43:37.502Z,100136.05
2019-05-19T04:46:06.549Z,100138.77
2019-05-19T04:48:35.956Z,100137.55
2019-05-19T04:51:04.997Z,100143.00
2019-05-19T04:53:34.657Z,100139.58
2019-05-19T04:56:03.697Z,100139.31
2019-05-19T04:58:32.721Z,100135.05
2019-05-19T05:01:01.757Z,100138.16
2019-05-19T05:03:30.795Z,100141.98
2019-05-19T05:05:59.845Z,100130.09
2019-05-19T05:08:30.841Z,100130.38
2019-05-19T05:10:59.625Z,100125.11
2019-05-19T05:13:28.662Z,100124.33
2019-05-19T05:15:57.702Z,100122.50
2019-05-19T05:18:26.996Z,100120.11
2019-05-19T05:20:56.087Z,100123.19
2019-05-19T05:23:25.101Z,100123.19
2019-05-19T05:25:54.194Z,100111.75
2019-05-19T05:28:23.246Z,100111.75
2019-05-19T05:30:52.594Z,100110.30
2019-05-19T05:33:21.627Z,100113.57
2019-05-19T05:35:50.671Z,100111.16
2019-05-19T05:38:19.706Z,100117.69
2019-05-19T05:40:48.731Z,100124.73
2019-05-19T05:43:17.772Z,100126.72
2019-05-19T05:45:47.034Z,100118.30
2019-05-19T05:48:16.041Z,100119.99
2019-05-19T05:50:45.097Z,100119.99
2019-05-19T05:53:14.129Z,100122.79
2019-05-19T05:55:43.162Z,100110.23
2019-05-19T05:58:12.208Z,100113.00
2019-05-19T06:00:41.281Z,100113.28
2019-05-19T06:03:10.356Z,100106.28
2019-05-19T06:05:39.386Z,100106.28
2019-05-19T06:08:08.409Z,100109.44
2019-05-19T06:10:37.434Z,100109.14
2019-05-19T06:13:06.467Z,100109.14
2019-05-19T06:15:35.526Z,100106.09
2019-05-19T06:18:04.528Z,100106.09
2019-05-19T06:20:33.584Z,100109.72
2019-05-19T06:23:02.671Z,100105.23
2019-05-19T06:25:31.730Z,100105.23
2019-05-19T06:28:00.760Z,100099.73
2019-05-19T06:30:29.838Z,100098.41
2019-05-19T06:33:00.343Z,100100.21
2019-05-19T06:35:29.370Z,100099.23
2019-05-19T06:37:58.415Z,100099.23
2019-05-19T06:40:27.518Z,100091.87
2019-05-19T06:42:56.562Z,100103.45
2019-05-19T06:45:25.693Z,100100.88
2019-05-19T06:47:54.689Z,100105.18
2019-05-19T06:50:23.728Z,100106.13
2019-05-19T06:52:52.758Z,100102.79
2019-05-19T06:55:21.832Z,100103.06
2019-05-19T06:57:50.907Z,100112.08
2019-05-19T07:00:19.924Z,100109.42
2019-05-19T07:02:48.965Z,100109.42
2019-05-19T07:05:19.128Z,100108.08
2019-05-19T07:07:48.204Z,100110.77
2019-05-19T07:10:17.263Z,100118.84
2019-05-19T07:12:46.379Z,100120.12
2019-05-19T07:15:15.738Z,100120.72
2019-05-19T07:17:44.841Z,100124.63
2019-05-19T07:20:13.862Z,100120.85
2019-05-19T07:22:43.037Z,100119.63
2019-05-19T07:25:13.680Z,100127.31
2019-05-19T07:27:42.778Z,100125.92
2019-05-19T07:30:13.437Z,100125.92
2019-05-19T07:32:42.467Z,100125.41
2019-05-19T07:35:11.732Z,100121.63
2019-05-19T07:37:40.791Z,100115.37
2019-05-19T07:40:10.202Z,100107.98
2019-05-19T07:42:39.221Z,100114.23
2019-05-19T07:45:08.270Z,100109.55
2019-05-19T07:47:37.300Z,100108.79
2019-05-19T07:50:06.770Z,100107.34
2019-05-19T07:52:35.874Z,100107.05
2019-05-19T07:55:08.862Z,100106.77
2019-05-19T07:57:37.892Z,100109.06
2019-05-19T08:00:09.882Z,100099.63
2019-05-19T08:02:38.977Z,100106.48
2019-05-19T08:05:08.289Z,100104.16
2019-05-19T08:07:37.464Z,100113.38
2019-05-19T08:10:07.286Z,100115.73
2019-05-19T08:12:36.370Z,100118.30
2019-05-19T08:15:07.750Z,100118.27
2019-05-19T08:17:36.839Z,100120.12
2019-05-19T08:20:08.745Z,100118.19
2019-05-19T08:22:37.821Z,100122.88
2019-05-19T08:25:08.348Z,100122.03
2019-05-19T08:27:37.441Z,100120.35
2019-05-19T08:30:09.974Z,100120.23
2019-05-19T08:32:39.008Z,100116.19
2019-05-19T08:35:08.311Z,100114.42
2019-05-19T08:37:37.434Z,100122.05
2019-05-19T08:40:06.689Z,100120.41
2019-05-19T08:42:35.737Z,100120.77
2019-05-19T08:45:07.806Z,100123.05
2019-05-19T08:47:37.093Z,100125.44
2019-05-19T08:50:07.597Z,100130.35
2019-05-19T08:52:36.661Z,100132.39
2019-05-19T08:55:06.519Z,100130.88
2019-05-19T08:57:35.621Z,100133.89
2019-05-19T09:00:06.717Z,100133.44
2019-05-19T09:02:35.746Z,100133.91
2019-05-19T09:05:06.477Z,100121.76
2019-05-19T09:07:35.658Z,100123.95
2019-05-19T09:10:08.347Z,100119.44
2019-05-19T09:12:37.921Z,100120.06
2019-05-19T09:15:07.275Z,100126.59
2019-05-19T09:17:36.318Z,100119.25
2019-05-19T09:20:06.792Z,100121.27
2019-05-19T09:22:35.818Z,100115.30
2019-05-19T09:25:07.930Z,100111.68
2019-05-19T09:27:36.984Z,100115.72
2019-05-19T09:30:10.661Z,100112.52
2019-05-19T09:32:39.710Z,100106.14
2019-05-19T09:35:08.763Z,100108.53
2019-05-19T09:37:37.791Z,100103.61
2019-05-19T09:40:09.545Z,100104.00
2019-05-19T09:42:38.560Z,100106.61
2019-05-19T09:45:10.370Z,100104.45
2019-05-19T09:47:39.712Z,100105.50
2019-05-19T09:50:08.830Z,100105.59
2019-05-19T09:52:38.415Z,100108.99
2019-05-19T09:55:07.431Z,100100.34
2019-05-19T09:57:36.715Z,100108.11
2019-05-19T10:00:10.456Z,100107.73
2019-05-19T10:02:39.484Z,100109.50
2019-05-19T10:05:08.678Z,100109.53
2019-05-19T10:07:37.804Z,100112.64
2019-05-19T10:10:11.348Z,100117.06
2019-05-19T10:12:40.356Z,100113.69
2019-05-19T10:15:10.325Z,100110.39
2019-05-19T10:17:39.398Z,100112.66
2019-05-19T10:20:09.244Z,100109.30
2019-05-19T10:22:38.285Z,100103.75
2019-05-19T10:25:20.827Z,100100.05
2019-05-19T10:27:39.904Z,100098.17
2019-05-19T10:30:09.166Z,100094.70
2019-05-19T10:32:38.190Z,100095.03
2019-05-19T10:35:07.785Z,100094.66
2019-05-19T10:37:36.969Z,100098.70
2019-05-19T10:40:06.577Z,100095.78
2019-05-19T10:42:35.904Z,100095.08
2019-05-19T10:45:08.817Z,100102.12
2019-05-19T10:47:37.957Z,100101.28
2019-05-19T10:50:07.458Z,100104.64
2019-05-19T10:52:36.506Z,100099.71
2019-05-19T10:55:06.290Z,100100.44
2019-05-19T10:57:35.317Z,100100.05
2019-05-19T11:00:07.006Z,100093.88
2019-05-19T11:02:36.014Z,100089.94
2019-05-19T11:05:06.893Z,100089.11
2019-05-19T11:07:35.904Z,100082.19
2019-05-19T11:10:07.511Z,100083.05
2019-05-19T11:12:36.780Z,100079.22
2019-05-19T11:15:08.576Z,100081.08
2019-05-19T11:21:16.014Z,100072.08
2019-05-19T11:23:45.034Z,100067.52
2019-05-19T11:26:14.059Z,100067.28
2019-05-19T11:28:43.066Z,100070.38
2019-05-19T11:31:12.158Z,100069.69
2019-05-19T11:33:41.219Z,100068.54
2019-05-19T11:36:10.218Z,100059.06
2019-05-19T11:38:39.280Z,100063.48
2019-05-19T11:41:08.440Z,100065.02
2019-05-19T11:43:37.466Z,100063.66
2019-05-19T11:46:06.533Z,100057.06
2019-05-19T11:48:35.560Z,100050.74
2019-05-19T11:51:04.907Z,100053.02
2019-05-19T11:53:33.887Z,100059.80
2019-05-19T11:56:06.573Z,100055.92
2019-05-19T11:58:33.685Z,100053.87
2019-05-19T12:01:02.794Z,100054.72
2019-05-19T12:03:31.905Z,100055.78
2019-05-19T12:06:00.946Z,100058.61
2019-05-19T12:08:29.976Z,100057.91
2019-05-19T12:10:59.001Z,100061.66
2019-05-19T12:13:28.132Z,100061.16
2019-05-19T12:15:57.158Z,100069.03
2019-05-19T12:18:26.176Z,100061.17
2019-05-19T12:20:55.204Z,100059.88
2019-05-19T12:23:24.229Z,100071.39
2019-05-19T12:25:53.287Z,100069.78
2019-05-19T12:28:22.332Z,100071.67
2019-05-19T12:30:51.367Z,100063.94
2019-05-19T12:33:20.391Z,100062.30
2019-05-19T12:35:49.488Z,100055.76
2019-05-19T12:38:18.611Z,100056.58
2019-05-19T12:40:47.636Z,100049.14
2019-05-19T12:43:16.650Z,100046.16
2019-05-19T12:45:45.705Z,100039.03
2019-05-19T12:48:14.712Z,100031.23
2019-05-19T12:50:43.752Z,100034.75
2019-05-19T12:53:12.819Z,100030.55
2019-05-19T12:55:41.867Z,100024.65
2019-05-19T12:58:10.951Z,100022.84
2019-05-19T13:00:39.972Z,100019.79
2019-05-19T13:03:08.980Z,100008.20
2019-05-19T13:05:38.013Z,100004.42
2019-05-19T13:08:07.059Z,100011.42
2019-05-19T13:10:36.082Z,100004.20
2019-05-19T13:13:05.132Z,100005.23
2019-05-19T13:15:34.235Z,100006.08
2019-05-19T13:18:03.244Z,100000.63
2019-05-19T13:20:32.279Z,100008.80
2019-05-19T13:23:01.373Z,100003.95
2019-05-19T13:25:30.468Z,99997.93
2019-05-19T13:27:59.581Z,99996.09
2019-05-19T13:30:28.590Z,99993.78
2019-05-19T13:32:57.618Z,99997.19
2019-05-19T13:35:26.608Z,100009.09
2019-05-19T13:37:55.677Z,100006.84
2019-05-19T13:40:24.685Z,99996.45
2019-05-19T13:42:53.882Z,99998.41
2019-05-19T13:45:22.939Z,99997.74
2019-05-19T13:47:52.045Z,99996.60
2019-05-19T13:50:21.058Z,99998.36
2019-05-19T13:52:51.314Z,99987.30
2019-05-19T13:55:20.491Z,99991.33
2019-05-19T13:57:49.742Z,99991.18
2019-05-19T14:00:19.211Z,99987.53
2019-05-19T14:02:48.225Z,99983.45
2019-05-19T14:05:17.324Z,99988.74
2019-05-19T14:07:46.331Z,99976.94
2019-05-19T14:10:15.347Z,99968.98
2019-05-19T14:12:44.370Z,99978.69
2019-05-19T14:15:13.989Z,99977.95
2019-05-19T14:17:43.127Z,99983.06
2019-05-19T14:20:12.519Z,99980.64
2019-05-19T14:22:41.545Z,99973.53
2019-05-19T14:25:10.987Z,99973.25
2019-05-19T14:27:40.011Z,99983.90
2019-05-19T14:30:09.585Z,99986.74
2019-05-19T14:32:38.621Z,99989.72
2019-05-19T14:35:10.380Z,99988.87
2019-05-19T14:37:39.492Z,99984.73
2019-05-19T14:40:08.633Z,99977.02
2019-05-19T14:42:51.235Z,99978.06
2019-05-19T14:45:20.313Z,99983.44
2019-05-19T14:47:49.341Z,99982.86
2019-05-19T14:50:18.370Z,99976.73
2019-05-19T14:52:47.444Z,99981.69
2019-05-19T14:55:16.469Z,99984.20
2019-05-19T14:57:45.820Z,99982.58
2019-05-19T15:00:16.694Z,99986.83
2019-05-19T15:02:45.698Z,99984.23
2019-05-19T15:05:14.889Z,99978.70
2019-05-19T15:07:44.159Z,99981.66
2019-05-19T15:10:13.266Z,99995.19
2019-05-19T15:12:42.325Z,99995.95
2019-05-19T15:15:11.341Z,100003.77
2019-05-19T15:17:40.402Z,100003.33
2019-05-19T15:20:09.511Z,100004.73
2019-05-19T15:22:38.595Z,100012.42
2019-05-19T15:25:08.153Z,100009.56
2019-05-19T15:27:37.389Z,100005.35
2019-05-19T15:30:13.204Z,100010.08
2019-05-19T15:32:38.992Z,100011.95
2019-05-19T15:35:08.637Z,100007.00
2019-05-19T15:37:37.648Z,100010.10
2019-05-19T15:40:07.826Z,100007.56
2019-05-19T15:42:36.933Z,100000.27
2019-05-19T15:45:06.570Z,100002.77
2019-05-19T15:47:35.616Z,100008.39
2019-05-19T15:50:08.355Z,100006.31
2019-05-19T15:52:37.441Z,100004.75
2019-05-19T15:55:06.957Z,100007.84
2019-05-19T15:57:36.216Z,99995.53
2019-05-19T16:00:08.036Z,99998.33
2019-05-19T16:02:37.659Z,100001.77
2019-05-19T16:05:07.604Z,100004.48
2019-05-19T16:07:36.633Z,100009.20
2019-05-19T16:10:08.993Z,100008.12
2019-05-19T16:12:38.021Z,100002.80
2019-05-19T16:15:07.967Z,100006.05
2019-05-19T16:17:37.071Z,100005.88
2019-05-19T16:20:10.572Z,100004.25
2019-05-19T16:22:39.605Z,100006.10
2019-05-19T16:25:08.794Z,99997.81
2019-05-19T16:27:37.828Z,99986.79
2019-05-19T16:30:09.178Z,99987.26
2019-05-19T16:32:38.449Z,99990.73
2019-05-19T16:35:07.838Z,99985.97
2019-05-19T16:37:36.956Z,99981.72
2019-05-19T16:40:07.116Z,99969.92
2019-05-19T16:42:37.645Z,99965.84
2019-05-19T16:45:08.953Z,99964.39
2019-05-19T16:47:38.009Z,99967.73
2019-05-19T16:50:07.230Z,99966.03
2019-05-19T16:52:36.246Z,99965.30
2019-05-19T16:55:19.157Z,99963.14
2019-05-19T16:57:48.140Z,99964.94
2019-05-19T17:00:17.252Z,99961.82
2019-05-19T17:02:46.361Z,99962.49
2019-05-19T17:05:15.440Z,99964.64
2019-05-19T17:07:44.449Z,99958.14
2019-05-19T17:10:13.497Z,99955.45
2019-05-19T17:12:42.519Z,99957.36
2019-05-19T17:15:11.611Z,99959.00
2019-05-19T17:17:40.633Z,99954.37
2019-05-19T17:20:10.325Z,99953.77
2019-05-19T17:22:39.629Z,99958.22
2019-05-19T17:25:08.761Z,99962.67
2019-05-19T17:27:37.796Z,99965.28
2019-05-19T17:30:08.349Z,99968.11
2019-05-19T17:32:37.499Z,99966.38
2019-05-19T17:35:07.258Z,99968.77
2019-05-19T17:37:36.289Z,99968.55
2019-05-19T17:40:06.263Z,99969.23
2019-05-19T17:42:37.333Z,99967.91
2019-05-19T17:45:07.400Z,99962.38
2019-05-19T17:47:36.702Z,99972.11
2019-05-19T17:50:06.526Z,99971.12
2019-05-19T17:52:35.817Z,99972.83
2019-05-19T17:55:07.312Z,99972.95
2019-05-19T17:57:37.115Z,99975.27
2019-05-19T18:00:10.147Z,99968.28
2019-05-19T18:02:39.184Z,99972.22
2019-05-19T18:05:08.374Z,99972.09
2019-05-19T18:07:37.455Z,99973.45
2019-05-19T18:10:07.214Z,99977.72
2019-05-19T18:12:36.255Z,99972.08
2019-05-19T18:15:06.498Z,99980.28
2019-05-19T18:17:35.512Z,99972.34
2019-05-19T18:20:06.855Z,99974.63
2019-05-19T18:22:35.862Z,99969.23
2019-05-19T18:25:06.025Z,99968.62
2019-05-19T18:27:35.045Z,99973.36
2019-05-19T18:30:04.477Z,99971.73
2019-05-19T18:32:33.505Z,99966.92
2019-05-19T18:35:02.577Z,99967.56
2019-05-19T18:37:31.663Z,99971.38
2019-05-19T18:40:00.725Z,99972.34
2019-05-19T18:42:29.755Z,99969.21
2019-05-19T18:44:58.794Z,99971.45
2019-05-19T18:47:28.349Z,99975.20
2019-05-19T18:49:57.379Z,99974.70
2019-05-19T18:52:26.420Z,99974.39
2019-05-19T18:54:55.554Z,99964.81
2019-05-19T18:57:24.594Z,99968.16
2019-05-19T18:59:53.622Z,99961.34
2019-05-19T19:02:22.648Z,99965.41
2019-05-19T19:04:51.702Z,99967.56
2019-05-19T19:07:22.370Z,99961.00
2019-05-19T19:09:51.423Z,99969.07
2019-05-19T19:12:20.459Z,99974.00
2019-05-19T19:14:49.477Z,99979.75
2019-05-19T19:17:18.541Z,99984.71
2019-05-19T19:19:47.614Z,99984.86
2019-05-19T19:22:16.717Z,99991.02
2019-05-19T19:24:45.746Z,99994.70
2019-05-19T19:27:14.855Z,99981.27
2019-05-19T19:29:43.861Z,99989.94
2019-05-19T19:32:12.893Z,99996.06
2019-05-19T19:34:41.924Z,100001.57
2019-05-19T19:37:10.945Z,100003.61
2019-05-19T19:39:39.988Z,100000.74
2019-05-19T19:42:09.020Z,100002.92
2019-05-19T19:44:38.073Z,99999.31
2019-05-19T19:47:07.176Z,99996.54
2019-05-19T19:49:36.271Z,99996.06
2019-05-19T19:52:05.299Z,99995.11
2019-05-19T19:54:34.386Z,99999.63
2019-05-19T19:57:03.416Z,99998.84
2019-05-19T19:59:32.452Z,99997.97
2019-05-19T20:02:01.548Z,99994.50
2019-05-19T20:04:30.569Z,99996.02
2019-05-19T20:06:59.666Z,99996.80
2019-05-19T20:09:28.739Z,100003.34
2019-05-19T20:11:57.763Z,99996.36
2019-05-19T20:14:26.794Z,99998.88
2019-05-19T20:16:55.840Z,99989.91
2019-05-19T20:19:25.003Z,99992.30
2019-05-19T20:21:54.101Z,99985.48
2019-05-19T20:24:23.423Z,99986.26
2019-05-19T20:26:52.449Z,99989.82
2019-05-19T20:29:21.486Z,99987.25
2019-05-19T20:31:50.522Z,99978.50
2019-05-19T20:34:19.575Z,99979.84
2019-05-19T20:36:48.670Z,99981.88
2019-05-19T20:39:17.908Z,99967.78
2019-05-19T20:41:47.021Z,99983.83
2019-05-19T20:44:16.039Z,99971.42
2019-05-19T20:46:45.221Z,99972.77
2019-05-19T20:49:14.256Z,99971.73
2019-05-19T20:51:43.382Z,99971.73
2019-05-19T20:54:12.436Z,99974.41
2019-05-19T20:56:41.489Z,99969.73
2019-05-19T20:59:10.540Z,99969.73
2019-05-19T21:01:39.561Z,99964.95
2019-05-19T21:04:08.583Z,99966.08
2019-05-19T21:06:37.620Z,99963.61
2019-05-19T21:09:06.907Z,99966.08
2019-05-19T21:11:35.945Z,99966.50
2019-05-19T21:14:04.969Z,99972.63
2019-05-19T21:16:33.986Z,99972.63
2019-05-19T21:19:03.057Z,99983.44
2019-05-19T21:21:32.064Z,99983.44
2019-05-19T21:24:01.116Z,99974.68
2019-05-19T21:26:30.132Z,99974.68
2019-05-19T21:28:59.149Z,99977.45
2019-05-19T21:31:28.175Z,99977.45
2019-05-19T21:33:57.284Z,99980.63
2019-05-19T21:36:26.297Z,99977.94
2019-05-19T21:38:55.395Z,99973.77
2019-05-19T21:41:24.442Z,99972.25
2019-05-19T21:43:53.456Z,99974.29
2019-05-19T21:46:22.489Z,99975.48
2019-05-19T21:48:51.515Z,99975.48
2019-05-19T21:51:20.531Z,99974.23
2019-05-19T21:53:49.946Z,99970.50
2019-05-19T21:56:18.970Z,99965.13
2019-05-19T21:58:48.021Z,99970.77
2019-05-19T22:01:23.255Z,99967.60
2019-05-19T22:03:47.801Z,99969.16
2019-05-19T22:06:18.276Z,99956.11
2019-05-19T22:08:47.283Z,99956.11
2019-05-19T22:11:16.313Z,99957.84
2019-05-19T22:13:45.520Z,99953.72
2019-05-19T22:16:14.589Z,99951.59
2019-05-19T22:18:43.734Z,99947.30
2019-05-19T22:21:12.689Z,99957.80
2019-05-19T22:23:41.748Z,99948.73
2019-05-19T22:26:10.766Z,99951.03
